Time;durP1;ratioP1;P1;durP2;ratioP2;P2;SDS_P1;SDS_P2;PMS_P1;PMS_P2;Temp;Humidity;BMP_temperature;BMP_pressure;BME280_temperature;BME280_humidity;BME280_pressure;Samples;Min_cycle;Max_cycle;Signal;HPM_P1;HPM_P2
2021/05/18 00:01:09;;;;;;;0.38;0.38;;;21.80;52.90;;;;;;6317673;28;20043;-65
2021/05/18 00:04:09;;;;;;;0.82;0.40;;;21.80;52.90;;;;;;6317538;28;20028;-65
2021/05/18 00:07:17;;;;;;;0.40;0.40;;;21.80;52.90;;;;;;6309779;28;20370;-66
2021/05/18 00:13:39;;;;;;;0.30;0.30;;;21.80;52.90;;;;;;6292492;28;20529;-65
2021/05/18 00:16:40;;;;;;;0.30;0.30;;;21.80;52.90;;;;;;6294366;28;20028;-65
2021/05/18 00:19:40;;;;;;;0.40;0.40;;;21.80;52.90;;;;;;6317387;28;20035;-66
2021/05/18 00:22:41;;;;;;;0.80;0.50;;;21.80;52.90;;;;;;6299709;28;20020;-65
2021/05/18 00:25:42;;;;;;;0.68;0.40;;;21.80;52.90;;;;;;6292353;28;20126;-65
2021/05/18 00:28:43;;;;;;;1.13;0.50;;;21.80;52.90;;;;;;6291973;28;20025;-65
2021/05/18 00:31:43;;;;;;;0.43;0.40;;;21.80;52.90;;;;;;6292331;28;20066;-65
2021/05/18 00:34:44;;;;;;;0.50;0.40;;;21.80;52.90;;;;;;6315865;28;20020;-65
2021/05/18 00:37:45;;;;;;;0.70;0.40;;;21.80;52.90;;;;;;6316674;28;20024;-65
2021/05/18 00:40:47;;;;;;;0.70;0.38;;;21.80;52.90;;;;;;6315897;28;20489;-65
2021/05/18 00:43:48;;;;;;;1.15;0.50;;;21.80;52.90;;;;;;6300273;28;20488;-65
2021/05/18 00:46:48;;;;;;;0.30;0.30;;;21.80;52.90;;;;;;6290335;28;20073;-65
2021/05/18 00:49:49;;;;;;;0.38;0.32;;;21.80;52.90;;;;;;6315972;28;20048;-65
2021/05/18 00:52:50;;;;;;;0.70;0.40;;;21.80;52.90;;;;;;6309441;28;20410;-65
2021/05/18 00:55:59;;;;;;;0.52;0.30;;;21.80;52.90;;;;;;6291770;28;20094;-66
2021/05/18 00:59:04;;;;;;;0.45;0.30;;;21.80;52.90;;;;;;6307209;28;20028;-65
2021/05/18 01:02:04;;;;;;;0.32;0.30;;;21.80;52.90;;;;;;6316613;28;20028;-65
2021/05/18 01:05:16;;;;;;;0.45;0.30;;;21.80;52.90;;;;;;6316251;28;20039;-65
2021/05/18 01:08:17;;;;;;;0.52;0.40;;;21.80;52.90;;;;;;6316229;28;20432;-65
2021/05/18 01:11:21;;;;;;;0.73;0.50;;;21.80;52.90;;;;;;6316650;28;20064;-65
2021/05/18 01:14:22;;;;;;;0.47;0.40;;;21.80;52.90;;;;;;6314897;28;20024;-66
2021/05/18 01:17:22;;;;;;;0.32;0.30;;;21.80;52.90;;;;;;6314860;28;20044;-65
2021/05/18 01:20:23;;;;;;;0.40;0.40;;;21.80;52.90;;;;;;6316074;28;20032;-65
2021/05/18 01:23:25;;;;;;;0.40;0.30;;;21.80;52.90;;;;;;6298702;28;20063;-65
2021/05/18 01:26:30;;;;;;;0.30;0.30;;;21.80;52.90;;;;;;6316554;28;20036;-65
2021/05/18 01:29:32;;;;;;;;;;;21.80;52.90;;;;;;6301423;28;20044;-65
2021/05/18 01:32:34;;;;;;;0.30;0.30;;;21.80;52.90;;;;;;6289909;28;19912;-65
2021/05/18 01:35:35;;;;;;;0.40;0.30;;;21.80;52.90;;;;;;6290778;28;20657;-65
2021/05/18 01:39:28;;;;;;;0.88;0.30;;;21.80;52.90;;;;;;6290881;28;20019;-65
2021/05/18 01:45:24;;;;;;;0.88;0.50;;;21.80;52.90;;;;;;6310394;28;20106;-65
2021/05/18 01:48:25;;;;;;;0.63;0.35;;;21.80;52.90;;;;;;6315620;28;20504;-65
2021/05/18 01:51:30;;;;;;;0.40;0.40;;;21.80;52.90;;;;;;6319715;28;20060;-66
2021/05/18 01:54:35;;;;;;;0.38;0.38;;;21.80;52.90;;;;;;6320533;28;20113;-66
2021/05/18 01:57:35;;;;;;;0.60;0.30;;;21.80;52.90;;;;;;6304798;28;20073;-65
2021/05/18 02:00:38;;;;;;;0.43;0.30;;;21.80;52.90;;;;;;6306046;28;20024;-65
2021/05/18 02:03:39;;;;;;;0.47;0.45;;;21.80;52.90;;;;;;6298220;28;20032;-65
2021/05/18 02:06:39;;;;;;;0.30;0.30;;;21.80;52.90;;;;;;6320248;28;20073;-66
2021/05/18 02:09:40;;;;;;;0.28;0.20;;;21.80;52.90;;;;;;6320111;28;20028;-65
2021/05/18 02:12:41;;;;;;;0.40;0.40;;;21.80;52.90;;;;;;6320414;28;20028;-65
2021/05/18 02:15:55;;;;;;;0.20;0.20;;;21.80;52.90;;;;;;6301726;28;20511;-65
2021/05/18 02:25:06;;;;;;;0.40;0.40;;;21.80;52.90;;;;;;6306960;28;20052;-65
2021/05/18 02:28:08;;;;;;;0.30;0.30;;;21.80;52.90;;;;;;6302715;28;20525;-65
2021/05/18 02:31:10;;;;;;;0.40;0.30;;;21.80;52.90;;;;;;6314800;28;20393;-65
2021/05/18 02:34:11;;;;;;;0.63;0.20;;;21.80;52.90;;;;;;6319736;28;20047;-65
2021/05/18 02:37:12;;;;;;;0.22;0.22;;;21.80;52.90;;;;;;6318474;28;20038;-65
2021/05/18 02:40:23;;;;;;;0.30;0.30;;;21.80;52.90;;;;;;6319255;28;20093;-65
2021/05/18 02:43:32;;;;;;;0.30;0.28;;;21.80;52.90;;;;;;6319911;28;20493;-65
2021/05/18 02:49:51;;;;;;;0.57;0.40;;;21.80;52.90;;;;;;6312637;28;20083;-65
2021/05/18 02:52:52;;;;;;;0.30;0.22;;;21.80;52.90;;;;;;6314335;28;20557;-65
2021/05/18 02:56:25;;;;;;;0.88;0.40;;;21.80;52.90;;;;;;6312254;28;20028;-65
2021/05/18 02:59:17;;;;;;;0.95;0.68;;;21.80;52.90;;;;;;6293792;28;20124;-65
2021/05/18 03:02:18;;;;;;;0.30;0.30;;;21.80;52.90;;;;;;6269076;28;20036;-65
2021/05/18 03:05:19;;;;;;;0.40;0.30;;;21.80;52.90;;;;;;6276734;28;20028;-65
2021/05/18 03:08:20;;;;;;;0.22;0.22;;;21.80;52.90;;;;;;6294606;28;20118;-65
2021/05/18 03:11:21;;;;;;;0.20;0.20;;;21.80;52.90;;;;;;6295580;28;20374;-66
2021/05/18 03:14:23;;;;;;;0.43;0.40;;;21.80;52.90;;;;;;6293684;28;20099;-66
2021/05/18 03:17:23;;;;;;;0.52;0.30;;;21.80;52.90;;;;;;6293652;28;20021;-66
2021/05/18 03:20:25;;;;;;;0.35;0.30;;;21.80;52.90;;;;;;6298433;28;20028;-66
2021/05/18 03:23:25;;;;;;;0.30;0.30;;;21.80;52.90;;;;;;6318722;28;20032;-66
2021/05/18 03:26:27;;;;;;;0.30;0.20;;;21.80;52.90;;;;;;6305185;28;20323;-66
2021/05/18 03:29:32;;;;;;;0.30;0.30;;;21.80;52.90;;;;;;6293509;28;20021;-66
2021/05/18 03:35:52;;;;;;;0.40;0.30;;;21.80;52.90;;;;;;6300331;28;20384;-66
2021/05/18 03:38:56;;;;;;;0.30;0.30;;;21.80;52.90;;;;;;6318792;28;20152;-66
2021/05/18 03:45:11;;;;;;;0.55;0.30;;;21.80;52.90;;;;;;6318356;28;20561;-66
2021/05/18 03:55:09;;;;;;;0.45;0.30;;;21.80;52.90;;;;;;6308776;28;20028;-66
2021/05/18 03:58:41;;;;;;;0.20;0.20;;;21.80;52.90;;;;;;6294785;28;20119;-66
2021/05/18 04:05:11;;;;;;;0.20;0.20;;;21.80;52.90;;;;;;6318021;28;20032;-66
2021/05/18 04:11:50;;;;;;;0.35;0.28;;;21.80;53.50;;;;;;6317304;28;20028;-66
2021/05/18 04:18:16;;;;;;;0.52;0.28;;;21.80;52.90;;;;;;6297266;28;20025;-66
2021/05/18 04:41:15;;;;;;;0.38;0.30;;;21.80;52.90;;;;;;6316825;28;20071;-71
2021/05/18 04:48:18;;;;;;;0.20;0.20;;;21.80;52.90;;;;;;6315987;28;20025;-70
2021/05/18 05:07:09;;;;;;;0.20;0.20;;;21.80;52.90;;;;;;6316764;28;20517;-70
2021/05/18 05:10:10;;;;;;;0.20;0.20;;;21.80;52.80;;;;;;6316430;28;20016;-70
2021/05/18 05:16:14;;;;;;;0.30;0.20;;;21.80;52.80;;;;;;6316685;28;20539;-70
2021/05/18 05:19:14;;;;;;;0.10;0.10;;;21.80;52.80;;;;;;6316545;28;20020;-69
2021/05/18 05:22:15;;;;;;;0.10;0.10;;;21.80;52.80;;;;;;6301802;28;20028;-70
2021/05/18 05:25:16;;;;;;;0.15;0.15;;;21.80;52.90;;;;;;6318433;28;20526;-70
2021/05/18 05:28:16;;;;;;;2.92;0.20;;;21.80;52.80;;;;;;6321711;28;20028;-70
2021/05/18 05:31:17;;;;;;;0.20;0.20;;;21.80;52.80;;;;;;6321398;28;20088;-70
2021/05/18 05:34:18;;;;;;;0.28;0.28;;;21.80;52.80;;;;;;6320196;28;20027;-70
2021/05/18 05:37:19;;;;;;;0.40;0.20;;;21.80;52.80;;;;;;6319736;28;20024;-70
2021/05/18 05:40:21;;;;;;;0.13;0.13;;;21.80;52.80;;;;;;6296654;28;20039;-70
2021/05/18 05:43:22;;;;;;;0.25;0.25;;;21.80;52.80;;;;;;6302047;28;20085;-69
2021/05/18 05:46:23;;;;;;;0.10;0.10;;;21.80;52.80;;;;;;6296910;28;20374;-70
2021/05/18 05:49:24;;;;;;;0.20;0.20;;;21.80;52.80;;;;;;6295349;28;20024;-70
2021/05/18 05:52:24;;;;;;;0.20;0.20;;;21.80;52.80;;;;;;6295773;28;20025;-70
2021/05/18 05:55:25;;;;;;;0.10;0.10;;;21.80;52.80;;;;;;6303703;28;20048;-70
2021/05/18 05:58:28;;;;;;;0.30;0.30;;;21.80;52.80;;;;;;6300040;28;20121;-70
2021/05/18 06:01:29;;;;;;;0.22;0.22;;;21.80;52.80;;;;;;6294922;28;20059;-69
2021/05/18 06:04:31;;;;;;;0.88;0.32;;;21.80;52.80;;;;;;6300181;28;20027;-69
2021/05/18 06:07:32;;;;;;;0.20;0.20;;;21.80;52.80;;;;;;6297642;28;20392;-70
2021/05/18 06:10:40;;;;;;;0.20;0.20;;;21.80;52.80;;;;;;6293792;28;20075;-69
2021/05/18 06:14:31;;;;;;;0.75;0.40;;;21.80;52.80;;;;;;6293908;28;20397;-69
2021/05/18 06:43:28;;;;;;;0.25;0.20;;;21.80;52.80;;;;;;6323058;28;20020;-70
2021/05/18 06:46:49;;;;;;;0.20;0.20;;;21.80;52.80;;;;;;6297429;28;20089;-68
2021/05/18 06:49:57;;;;;;;0.15;0.10;;;21.80;52.80;;;;;;6289057;28;20032;-68
2021/05/18 06:52:59;;;;;;;0.20;0.20;;;21.80;52.80;;;;;;6289292;28;20020;-68
2021/05/18 06:56:02;;;;;;;0.20;0.20;;;21.80;52.80;;;;;;6298869;28;20024;-68
2021/05/18 07:02:06;;;;;;;0.20;0.20;;;21.80;52.80;;;;;;6280681;28;20047;-69
2021/05/18 07:11:17;;;;;;;0.20;0.20;;;21.80;52.80;;;;;;6310009;28;20024;-66
2021/05/18 07:14:17;;;;;;;0.50;0.20;;;21.80;52.80;;;;;;6297219;28;20024;-66
2021/05/18 07:17:18;;;;;;;0.25;0.20;;;21.80;52.80;;;;;;6294932;28;20469;-66
2021/05/18 07:20:20;;;;;;;0.20;0.15;;;21.80;52.80;;;;;;6299579;28;20020;-66
2021/05/18 07:23:23;;;;;;;0.20;0.20;;;21.80;52.80;;;;;;6298225;28;20086;-66
2021/05/18 07:26:24;;;;;;;0.20;0.20;;;21.80;52.80;;;;;;6309042;28;20460;-65
2021/05/18 07:29:26;;;;;;;0.20;0.20;;;21.80;52.80;;;;;;6296663;28;20032;-66
2021/05/18 07:32:26;;;;;;;0.10;0.10;;;21.80;52.80;;;;;;6298947;28;20059;-66
2021/05/18 07:35:27;;;;;;;0.10;0.10;;;21.80;52.80;;;;;;6299621;28;20043;-66
2021/05/18 07:38:28;;;;;;;0.30;0.28;;;21.80;52.80;;;;;;6305136;28;20428;-66
2021/05/18 07:41:32;;;;;;;0.88;0.30;;;21.80;52.80;;;;;;6307493;28;20024;-66
2021/05/18 07:44:32;;;;;;;0.65;0.30;;;21.80;52.80;;;;;;6296435;28;20017;-65
2021/05/18 07:47:36;;;;;;;0.20;0.20;;;21.80;52.80;;;;;;6296098;28;20024;-66
2021/05/18 07:50:46;;;;;;;0.35;0.30;;;21.80;52.80;;;;;;6295862;28;20060;-65
2021/05/18 08:00:38;;;;;;;1.75;0.20;;;21.80;52.80;;;;;;6320266;28;20032;-66
2021/05/18 08:06:58;;;;;;;1.75;0.30;;;21.80;52.80;;;;;;6310585;28;20060;-66
2021/05/18 08:13:08;;;;;;;0.17;0.17;;;21.80;52.80;;;;;;6307459;28;20374;-66
2021/05/18 08:19:48;;;;;;;0.28;0.28;;;21.80;52.80;;;;;;6313522;28;20023;-66
2021/05/18 08:55:27;;;;;;;0.40;0.30;;;21.80;52.80;;;;;;6305952;28;20028;-65
2021/05/18 08:56:51;;;;;;;0.20;0.20;;;21.80;52.80;;;;;;6278828;28;20021;-67
2021/05/18 09:33:10;;;;;;;0.30;0.30;;;21.80;52.80;;;;;;6307624;28;20020;-65
2021/05/18 09:34:23;;;;;;;0.50;0.30;;;21.80;52.80;;;;;;6319262;28;20032;-65
2021/05/18 09:47:43;;;;;;;0.50;0.47;;;21.90;52.60;;;;;;6297625;28;20484;-68
2021/05/18 10:35:49;;;;;;;6.57;2.27;;;21.80;49.60;;;;;;6313309;28;20450;-66
2021/05/18 10:38:52;;;;;;;3.72;2.17;;;21.80;50.40;;;;;;6323168;28;20034;-68
2021/05/18 10:41:54;;;;;;;3.50;1.83;;;21.80;50.50;;;;;;6296895;28;20017;-67
2021/05/18 10:44:56;;;;;;;5.05;1.98;;;21.80;50.70;;;;;;6303564;28;20043;-67
2021/05/18 10:47:57;;;;;;;5.18;1.88;;;21.80;51.10;;;;;;6307015;28;20069;-67
2021/05/18 10:51:20;;;;;;;4.45;2.13;;;21.80;51.20;;;;;;6315923;28;20439;-67
2021/05/18 10:54:30;;;;;;;3.65;1.50;;;21.80;51.20;;;;;;6303377;28;20029;-67
2021/05/18 10:57:32;;;;;;;3.20;1.40;;;21.80;51.30;;;;;;6289243;28;20029;-68
2021/05/18 11:00:32;;;;;;;2.63;1.70;;;21.80;51.30;;;;;;6282766;28;20032;-67
2021/05/18 11:03:36;;;;;;;2.78;1.58;;;21.80;51.40;;;;;;6302897;28;20088;-68
2021/05/18 11:06:56;;;;;;;4.90;1.52;;;21.80;51.40;;;;;;6311070;28;20024;-67
2021/05/18 11:09:57;;;;;;;3.35;1.38;;;21.80;51.40;;;;;;6282659;28;20374;-67
2021/05/18 11:13:01;;;;;;;2.08;1.58;;;21.80;51.40;;;;;;6304640;28;20074;-68
2021/05/18 11:16:13;;;;;;;2.65;1.65;;;21.80;51.50;;;;;;6310118;28;20076;-68
2021/05/18 11:19:14;;;;;;;1.98;1.35;;;21.90;51.60;;;;;;6301608;28;20032;-67
2021/05/18 11:22:18;;;;;;;2.40;1.38;;;21.80;51.50;;;;;;6304404;28;20054;-67
2021/05/18 11:25:25;;;;;;;1.75;1.10;;;21.80;51.50;;;;;;6305367;28;20046;-67
2021/05/18 11:28:27;;;;;;;2.60;1.40;;;21.80;51.50;;;;;;6317826;28;20423;-67
2021/05/18 11:31:29;;;;;;;2.67;1.33;;;21.90;51.70;;;;;;6295526;28;20063;-67
2021/05/18 11:34:29;;;;;;;2.15;1.20;;;21.90;51.60;;;;;;6299621;28;20110;-68
2021/05/18 11:37:31;;;;;;;2.75;1.38;;;21.90;51.70;;;;;;6312098;28;20028;-68
2021/05/18 11:40:50;;;;;;;1.60;1.13;;;21.90;51.70;;;;;;6318105;28;20464;-67
2021/05/18 11:43:56;;;;;;;1.73;1.27;;;21.90;51.70;;;;;;6280581;28;20034;-67
2021/05/18 11:46:59;;;;;;;1.20;1.10;;;21.90;51.70;;;;;;6312441;28;20423;-67
2021/05/18 11:50:00;;;;;;;1.65;1.25;;;21.90;51.70;;;;;;6301483;28;20055;-67
2021/05/18 11:53:00;;;;;;;2.00;1.20;;;21.90;51.70;;;;;;6320981;28;20020;-67
2021/05/18 11:56:15;;;;;;;1.40;0.98;;;22.00;51.60;;;;;;6310076;28;20377;-67
2021/05/18 11:59:18;;;;;;;5.35;1.17;;;22.00;51.50;;;;;;6316208;28;20072;-67
2021/05/18 12:02:21;;;;;;;2.33;1.33;;;22.00;51.40;;;;;;6301884;28;20482;-67
2021/05/18 12:05:22;;;;;;;2.00;1.38;;;22.00;51.40;;;;;;6297869;28;20155;-67
2021/05/18 12:08:33;;;;;;;1.67;1.25;;;22.10;51.60;;;;;;6294217;28;20024;-67
2021/05/18 12:12:08;;;;;;;1.50;0.90;;;22.00;51.50;;;;;;6298739;28;20485;-67
2021/05/18 12:15:12;;;;;;;1.80;1.10;;;22.00;51.50;;;;;;6293143;28;20028;-67
2021/05/18 12:18:15;;;;;;;1.63;1.10;;;22.00;51.60;;;;;;6306210;28;20024;-67
2021/05/18 12:21:25;;;;;;;2.00;1.10;;;22.00;51.70;;;;;;6304997;28;20031;-67
2021/05/18 12:24:27;;;;;;;3.60;1.23;;;22.00;51.70;;;;;;6316862;28;20020;-67
2021/05/18 12:27:28;;;;;;;1.60;1.10;;;21.90;51.70;;;;;;6298612;28;20020;-67
2021/05/18 12:30:36;;;;;;;2.42;1.15;;;21.90;52.40;;;;;;6305636;28;20028;-67
2021/05/18 12:33:37;;;;;;;1.50;0.88;;;21.90;51.70;;;;;;6315382;28;20028;-68
2021/05/18 12:36:49;;;;;;;2.10;1.05;;;21.90;51.70;;;;;;6308169;28;20027;-67
2021/05/18 12:39:51;;;;;;;1.80;0.80;;;21.90;51.70;;;;;;6295352;28;20047;-66
2021/05/18 12:42:54;;;;;;;4.57;0.85;;;21.90;51.70;;;;;;6299810;28;20042;-67
2021/05/18 12:46:09;;;;;;;1.05;0.90;;;21.90;51.70;;;;;;6295742;28;20035;-67
2021/05/18 12:49:21;;;;;;;;;;;21.90;51.70;;;;;;6311084;28;20024;-67
2021/05/18 12:52:22;;;;;;;2.65;1.00;;;21.90;51.80;;;;;;6294683;28;19916;-67
2021/05/18 12:55:31;;;;;;;4.72;0.80;;;21.90;51.80;;;;;;6295294;28;20048;-67
2021/05/18 12:58:34;;;;;;;0.85;0.80;;;21.90;51.80;;;;;;6335454;28;20028;-67
2021/05/18 13:01:41;;;;;;;2.13;1.02;;;21.90;51.80;;;;;;6321121;28;20436;-67
2021/05/18 13:04:42;;;;;;;1.35;0.80;;;21.90;52.50;;;;;;6313931;28;20753;-67
2021/05/18 13:08:02;;;;;;;1.52;0.90;;;21.90;51.80;;;;;;6319212;28;20062;-66
2021/05/18 13:12:11;;;;;;;1.23;0.75;;;21.90;51.90;;;;;;6342229;28;20032;-67
2021/05/18 13:14:58;;;;;;;2.78;0.80;;;21.90;51.90;;;;;;6323469;28;20035;-64
2021/05/18 13:18:00;;;;;;;1.10;0.90;;;21.90;51.90;;;;;;6298296;28;20515;-66
2021/05/18 13:21:01;;;;;;;0.93;0.80;;;21.90;51.90;;;;;;6324979;28;20028;-67
2021/05/18 13:27:09;;;;;;;1.42;0.77;;;21.90;51.90;;;;;;6324054;28;20027;-69
2021/05/18 13:30:10;;;;;;;4.22;0.90;;;21.90;51.90;;;;;;6322402;28;20036;-69
2021/05/18 13:33:12;;;;;;;1.05;0.75;;;21.90;51.90;;;;;;6298427;28;20024;-68
2021/05/18 13:36:12;;;;;;;3.20;0.80;;;21.90;51.90;;;;;;6294607;28;20021;-65
2021/05/18 13:39:21;;;;;;;1.42;0.77;;;21.90;52.00;;;;;;6302406;28;20044;-65
2021/05/18 13:42:22;;;;;;;1.42;0.75;;;21.90;52.00;;;;;;6283552;28;20021;-67
2021/05/18 13:45:27;;;;;;;1.25;0.90;;;21.90;52.00;;;;;;6300049;28;20032;-67
2021/05/18 13:48:28;;;;;;;6.30;1.02;;;21.90;52.00;;;;;;6316869;28;20020;-67
2021/05/18 13:51:30;;;;;;;0.88;0.73;;;22.00;52.10;;;;;;6310268;28;20059;-67
2021/05/18 13:54:31;;;;;;;1.50;0.80;;;21.90;52.00;;;;;;6315555;28;20496;-67
2021/05/18 13:57:32;;;;;;;1.00;0.90;;;21.90;52.00;;;;;;6303265;28;20095;-67
2021/05/18 14:00:33;;;;;;;2.20;0.68;;;21.90;52.00;;;;;;6307642;28;20031;-67
2021/05/18 14:03:34;;;;;;;2.38;0.90;;;21.90;52.00;;;;;;6298500;28;20028;-65
2021/05/18 14:06:36;;;;;;;1.13;0.73;;;21.90;52.00;;;;;;6298943;28;20032;-66
2021/05/18 14:09:36;;;;;;;0.80;0.80;;;21.90;52.00;;;;;;6319677;28;20557;-67
2021/05/18 14:12:37;;;;;;;0.90;0.80;;;21.90;52.00;;;;;;6297164;28;20111;-69
2021/05/18 14:15:39;;;;;;;1.17;0.90;;;21.90;52.00;;;;;;6302638;28;20108;-69
2021/05/18 14:18:41;;;;;;;1.02;0.93;;;21.90;52.00;;;;;;6288087;28;20309;-68
2021/05/18 14:21:42;;;;;;;1.52;0.73;;;21.90;52.00;;;;;;6315659;28;20036;-69
2021/05/18 14:24:52;;;;;;;0.77;0.60;;;21.90;52.00;;;;;;6314999;28;20063;-70
2021/05/18 14:27:53;;;;;;;0.65;0.60;;;21.90;52.10;;;;;;6296067;28;20020;-69
2021/05/18 14:30:53;;;;;;;0.70;0.70;;;21.90;52.00;;;;;;6312392;28;20067;-69
2021/05/18 14:33:54;;;;;;;1.23;0.80;;;21.90;52.00;;;;;;6299829;28;20275;-69
2021/05/18 14:36:55;;;;;;;1.10;0.63;;;21.90;52.00;;;;;;6320542;28;20058;-69
2021/05/18 14:40:06;;;;;;;0.63;0.50;;;21.90;52.00;;;;;;6300438;28;20028;-68
2021/05/18 14:43:42;;;;;;;1.50;0.90;;;21.90;52.00;;;;;;6294475;28;20025;-69
2021/05/18 14:46:49;;;;;;;1.15;0.70;;;21.90;52.10;;;;;;6317818;28;20439;-68
2021/05/18 14:56:28;;;;;;;1.02;0.75;;;21.90;52.10;;;;;;6281028;28;20116;-68
2021/05/18 14:59:29;;;;;;;1.75;0.68;;;21.90;52.10;;;;;;6297181;28;20029;-69
2021/05/18 15:02:30;;;;;;;1.00;0.70;;;21.90;52.10;;;;;;6288637;28;20116;-69
2021/05/18 15:05:31;;;;;;;0.80;0.47;;;21.90;52.10;;;;;;6297239;28;20073;-68
2021/05/18 15:08:31;;;;;;;3.85;0.70;;;21.90;52.10;;;;;;6296267;28;20107;-69
2021/05/18 15:11:32;;;;;;;0.98;0.60;;;21.90;52.10;;;;;;6299128;28;20401;-68
2021/05/18 15:14:34;;;;;;;2.03;0.70;;;21.90;52.10;;;;;;6294202;28;20078;-69
2021/05/18 15:17:35;;;;;;;1.20;0.70;;;21.90;52.10;;;;;;6302130;28;20021;-69
2021/05/18 15:20:36;;;;;;;0.70;0.70;;;21.90;52.10;;;;;;6297686;28;20483;-67
2021/05/18 15:23:39;;;;;;;0.70;0.60;;;21.90;52.10;;;;;;6295784;28;20043;-67
2021/05/18 15:26:40;;;;;;;1.45;0.75;;;21.90;52.10;;;;;;6315640;28;20031;-67
2021/05/18 15:29:40;;;;;;;1.05;0.60;;;21.90;52.10;;;;;;6303176;28;20035;-67
2021/05/18 15:32:41;;;;;;;1.10;0.68;;;21.90;52.10;;;;;;6295663;28;20024;-67
2021/05/18 15:35:41;;;;;;;1.02;0.70;;;21.90;52.10;;;;;;6306043;28;20031;-67
2021/05/18 15:38:47;;;;;;;0.60;0.60;;;21.90;52.10;;;;;;6310192;28;20031;-67
2021/05/18 15:41:48;;;;;;;0.68;0.50;;;21.90;52.10;;;;;;6314205;28;20058;-66
2021/05/18 15:44:50;;;;;;;1.40;0.80;;;21.90;52.10;;;;;;6296921;28;20074;-67
2021/05/18 15:47:50;;;;;;;0.50;0.50;;;21.90;52.10;;;;;;6294483;28;20028;-68
2021/05/18 15:50:51;;;;;;;3.25;0.60;;;21.90;52.10;;;;;;6297038;28;20049;-67
2021/05/18 15:53:52;;;;;;;0.52;0.52;;;21.90;52.20;;;;;;6295650;28;20035;-66
2021/05/18 15:56:53;;;;;;;0.55;0.50;;;21.90;52.20;;;;;;6297860;28;20017;-66
2021/05/18 15:59:53;;;;;;;0.50;0.50;;;21.90;52.10;;;;;;6295519;28;20039;-66
2021/05/18 16:02:55;;;;;;;0.85;0.70;;;21.90;52.20;;;;;;6296065;28;20056;-65
2021/05/18 16:06:00;;;;;;;0.57;0.52;;;21.90;52.20;;;;;;6294866;28;20037;-65
2021/05/18 16:09:01;;;;;;;0.70;0.50;;;21.90;52.20;;;;;;6292611;28;20072;-66
2021/05/18 16:12:06;;;;;;;0.88;0.50;;;21.90;52.20;;;;;;6308494;28;20024;-65
2021/05/18 16:15:07;;;;;;;0.50;0.47;;;21.90;52.20;;;;;;6300955;28;20217;-65
2021/05/18 16:18:08;;;;;;;1.27;0.60;;;21.90;52.20;;;;;;6274292;28;20387;-65
2021/05/18 16:21:10;;;;;;;3.83;0.60;;;21.90;52.20;;;;;;6285644;28;20060;-65
2021/05/18 16:24:11;;;;;;;0.88;0.50;;;21.90;52.20;;;;;;6291738;28;20012;-65
2021/05/18 16:27:15;;;;;;;1.17;0.70;;;21.90;52.20;;;;;;6288079;28;20536;-65
2021/05/18 16:30:16;;;;;;;0.50;0.50;;;21.90;52.20;;;;;;6304512;28;20021;-66
2021/05/18 16:33:17;;;;;;;0.80;0.57;;;21.90;52.50;;;;;;6291331;28;20436;-66
2021/05/18 16:36:18;;;;;;;1.80;0.63;;;21.90;52.20;;;;;;6292884;28;20020;-66
2021/05/18 16:39:22;;;;;;;1.27;0.70;;;21.90;52.20;;;;;;6311392;28;20081;-66
2021/05/18 16:42:26;;;;;;;1.48;0.90;;;21.90;52.30;;;;;;6316439;28;20019;-66
2021/05/18 16:45:26;;;;;;;5.05;0.85;;;21.90;52.30;;;;;;6301978;28;20580;-66
2021/05/18 16:48:27;;;;;;;1.48;0.65;;;22.00;52.30;;;;;;6312269;28;20020;-66
2021/05/18 16:51:28;;;;;;;4.38;0.82;;;22.00;52.30;;;;;;6302287;28;20044;-66
2021/05/18 16:54:29;;;;;;;2.75;0.60;;;22.00;52.20;;;;;;6316697;28;20094;-66
2021/05/18 16:57:30;;;;;;;3.85;1.15;;;22.00;52.20;;;;;;6289866;28;20052;-66
2021/05/18 17:00:31;;;;;;;4.10;1.10;;;22.00;52.20;;;;;;6289485;28;20024;-66
2021/05/18 17:03:32;;;;;;;11.80;2.30;;;22.00;52.20;;;;;;6284821;28;20052;-66
2021/05/18 17:06:34;;;;;;;10.40;1.90;;;22.00;52.20;;;;;;6299900;28;20035;-66
2021/05/18 17:09:34;;;;;;;5.10;1.77;;;22.10;52.30;;;;;;6290504;28;20059;-66
2021/05/18 17:12:35;;;;;;;10.70;3.13;;;22.10;52.40;;;;;;6291128;28;20393;-66
2021/05/18 17:15:37;;;;;;;3.25;1.40;;;22.00;52.80;;;;;;6309169;28;20021;-66
2021/05/18 17:18:38;;;;;;;11.77;2.10;;;22.00;52.30;;;;;;6286569;28;20021;-66
2021/05/18 17:21:39;;;;;;;6.18;1.80;;;22.00;52.20;;;;;;6292347;28;20024;-65
2021/05/18 17:24:39;;;;;;;14.20;2.90;;;22.00;52.20;;;;;;6306075;28;20036;-66
2021/05/18 17:27:40;;;;;;;9.93;2.03;;;22.00;52.20;;;;;;6315811;28;20055;-66
2021/05/18 17:30:41;;;;;;;8.68;2.65;;;22.00;52.20;;;;;;6315826;28;20024;-66
2021/05/18 17:33:43;;;;;;;9.55;2.47;;;22.00;52.20;;;;;;6299472;28;20028;-66
2021/05/18 17:36:43;;;;;;;8.05;2.47;;;22.00;52.20;;;;;;6295268;28;20500;-66
2021/05/18 17:39:44;;;;;;;8.00;2.30;;;22.00;52.20;;;;;;6319813;28;20062;-66
2021/05/18 17:42:45;;;;;;;10.15;2.42;;;22.00;52.30;;;;;;6306690;28;20055;-66
2021/05/18 17:45:45;;;;;;;6.30;2.28;;;22.00;52.30;;;;;;6271812;28;20029;-66
2021/05/18 17:48:46;;;;;;;7.47;2.35;;;22.00;52.30;;;;;;6315856;28;20028;-66
2021/05/18 17:51:46;;;;;;;7.85;2.78;;;22.00;52.30;;;;;;6290740;28;20047;-65
2021/05/18 17:54:47;;;;;;;5.10;2.33;;;22.00;52.30;;;;;;6301304;28;20416;-65
2021/05/18 17:57:48;;;;;;;5.22;2.38;;;22.00;52.30;;;;;;6305789;28;20070;-65
2021/05/18 18:00:49;;;;;;;9.13;2.97;;;22.00;52.30;;;;;;6294277;28;20101;-65
2021/05/18 18:03:51;;;;;;;6.80;2.58;;;22.00;52.30;;;;;;6309035;28;20016;-67
2021/05/18 18:06:51;;;;;;;9.75;3.15;;;22.00;52.30;;;;;;6318489;28;20431;-64
2021/05/18 18:09:54;;;;;;;7.13;2.92;;;22.00;52.30;;;;;;6316905;28;20035;-65
2021/05/18 18:12:56;;;;;;;8.18;2.80;;;22.00;52.30;;;;;;6313570;28;20040;-64
2021/05/18 18:15:57;;;;;;;11.07;2.72;;;22.00;52.30;;;;;;6297180;28;20107;-64
2021/05/18 18:18:58;;;;;;;7.13;2.45;;;22.00;52.40;;;;;;6318414;28;20096;-65
2021/05/18 18:21:58;;;;;;;6.75;2.40;;;22.00;52.30;;;;;;6307664;28;20036;-65
2021/05/18 18:24:59;;;;;;;6.55;2.45;;;22.00;52.30;;;;;;6312331;28;20732;-65
2021/05/18 18:28:00;;;;;;;7.32;2.42;;;22.00;52.40;;;;;;6308203;28;20125;-64
2021/05/18 18:31:01;;;;;;;5.97;2.58;;;22.00;52.30;;;;;;6318081;28;20024;-65
2021/05/18 18:34:01;;;;;;;10.38;2.58;;;22.00;52.40;;;;;;6297775;28;20056;-64
2021/05/18 18:37:06;;;;;;;5.03;2.67;;;22.00;52.40;;;;;;6299647;28;20029;-65
2021/05/18 18:40:09;;;;;;;9.50;2.60;;;21.90;52.30;;;;;;6313409;28;20078;-65
2021/05/18 18:43:11;;;;;;;6.53;2.70;;;21.90;52.30;;;;;;6308003;28;20036;-65
2021/05/18 18:46:12;;;;;;;5.28;2.03;;;22.00;52.40;;;;;;6318472;28;20528;-65
2021/05/18 18:49:16;;;;;;;7.30;2.10;;;22.00;52.40;;;;;;6301933;28;20055;-65
2021/05/18 18:53:16;;;;;;;4.93;2.03;;;22.00;52.40;;;;;;6310282;28;20136;-65
2021/05/18 18:55:39;;;;;;;5.85;2.20;;;22.00;52.40;;;;;;6293223;28;20028;-65
2021/05/18 18:58:40;;;;;;;11.52;2.78;;;21.90;52.30;;;;;;6296086;28;20521;-65
2021/05/18 19:02:02;;;;;;;6.75;2.33;;;21.90;52.30;;;;;;6300842;28;20032;-64
2021/05/18 19:05:20;;;;;;;5.03;1.92;;;21.90;52.30;;;;;;6298527;28;20024;-65
2021/05/18 19:08:59;;;;;;;3.53;1.80;;;21.90;52.30;;;;;;6288877;28;20035;-64
2021/05/18 19:15:16;;;;;;;7.43;1.98;;;22.00;52.50;;;;;;6309519;28;20032;-64
2021/05/18 19:18:17;;;;;;;8.03;1.87;;;22.00;52.50;;;;;;6295948;28;20040;-64
2021/05/18 19:21:18;;;;;;;8.50;2.20;;;21.90;52.40;;;;;;6294237;28;20475;-66
2021/05/18 19:24:19;;;;;;;6.10;2.28;;;21.90;52.40;;;;;;6298846;28;20023;-66
2021/05/18 19:27:21;;;;;;;6.30;2.10;;;21.90;52.40;;;;;;6292603;28;20012;-66
2021/05/18 19:30:21;;;;;;;7.93;1.90;;;21.90;52.40;;;;;;6307040;28;20020;-66
2021/05/18 19:33:22;;;;;;;5.88;1.77;;;21.90;52.40;;;;;;6310489;28;20028;-69
2021/05/18 19:47:47;;;;;;;3.67;1.60;;;21.90;52.40;;;;;;6303902;28;20032;-67
2021/05/18 19:49:20;;;;;;;7.57;1.90;;;21.90;52.40;;;;;;6299871;28;20158;-68
2021/05/18 19:52:21;;;;;;;3.45;1.42;;;21.90;52.40;;;;;;6315341;28;20177;-67
2021/05/18 19:55:29;;;;;;;6.18;1.58;;;21.90;52.40;;;;;;6318562;28;20020;-66
2021/05/18 20:14:48;;;;;;;3.47;1.27;;;21.90;52.40;;;;;;6317572;28;20105;-66
2021/05/18 20:15:36;;;;;;;5.85;1.63;;;21.90;52.40;;;;;;6317166;28;20031;-65
2021/05/18 20:21:56;;;;;;;5.90;1.60;;;21.90;52.40;;;;;;6280689;28;20486;-66
2021/05/18 20:24:56;;;;;;;5.57;1.58;;;21.90;52.40;;;;;;6290839;28;20077;-65
2021/05/18 20:27:57;;;;;;;3.53;1.40;;;21.90;52.40;;;;;;6290435;28;20432;-66
2021/05/18 20:30:59;;;;;;;2.60;1.40;;;21.90;52.50;;;;;;6296758;28;20028;-66
2021/05/18 20:34:06;;;;;;;6.47;1.40;;;21.90;52.40;;;;;;6317415;28;20023;-66
2021/05/18 20:40:27;;;;;;;3.58;1.40;;;21.90;52.40;;;;;;6317199;28;20111;-65
2021/05/18 20:43:28;;;;;;;5.70;1.42;;;21.90;53.10;;;;;;6317002;28;20050;-65
2021/05/18 20:46:30;;;;;;;3.45;1.35;;;21.90;52.40;;;;;;6310150;28;20658;-66
2021/05/18 20:49:31;;;;;;;4.55;1.75;;;21.90;52.40;;;;;;6291918;28;20461;-66
2021/05/18 20:52:31;;;;;;;2.92;1.38;;;21.90;52.40;;;;;;6299935;28;20024;-66